Aérodrome :







RETROUVEZ-NOUS SUR...

 
LOGIN :

S'inscrire | Disclaimer

   EN    FR    IT 

 









Légende :    VFR   VFR Marginal   IFR   IFR Intensif   IFR Très Intensif
Visi : 
Plafond : 
>= 8 km
>= 3000ft
5 à 8 km
1000 à 3000 ft
1500m à 5 km
500 à 1000 ft
800 à 1500m
200 à 500 ft
< 800m
< 200 ft
Symboles :   Orages  Brouillard  Fortes neiges  Fortes précipitations  Vent > 20 kt






- Altitude de l'aérodrome : 13 ft
- Code IATA : SXM


TNCM - Princess Juliana Int.

DERNIER METAR :
  • 110500Z 06012KT 9999 FEW018 26/22 Q1017

METARs EXPIRÉS :
  • 110400Z 08014G26KT 9999 -SHRA BKN016 25/22 Q1017

TAF TNCM
Valide du 11 à 06h jusqu'au 12 à 06h UTC


110539Z 1106/1206 06012KT P6SM VCSH SCT018
FM111400 07014KT P6SM VCTS SCT018 SCT040CB
FM112100 06012KT P6SM VCSH SCT020



MET'MAP, la Météo Aéronautique d'un coup d'oeil ! - Copyright ORBIFLY Décembre 2007 - Disclaimer

ORBIFLY MET'MAP TEAM :

Programmation & Développement : Alexandra Zaïnal
Sur une idée originale de : Baudouin d'Aumeries
Assistance à la programmation : Marc-Olivier Méhu
Soutien technique & logistique : Manuel Goepfert

Contact : metmap@orbifly.com




SOURCES & CREDITS :

   NOAA